sensor_id;sensor_type;location;lat;lon;timestamp;temperature;humidity
20442;DHT22;10380;52.102;20.614;2023-07-20T00:01:52;18.40;99.90
20442;DHT22;10380;52.102;20.614;2023-07-20T00:04:19;18.40;99.90
20442;DHT22;10380;52.102;20.614;2023-07-20T00:06:46;18.40;99.90
20442;DHT22;10380;52.102;20.614;2023-07-20T00:09:13;18.40;99.90
20442;DHT22;10380;52.102;20.614;2023-07-20T00:11:40;18.30;99.90
20442;DHT22;10380;52.102;20.614;2023-07-20T00:14:07;18.30;99.90
20442;DHT22;10380;52.102;20.614;2023-07-20T00:16:34;18.20;99.90
20442;DHT22;10380;52.102;20.614;2023-07-20T00:19:01;18.20;99.90
20442;DHT22;10380;52.102;20.614;2023-07-20T00:21:28;18.20;99.90
20442;DHT22;10380;52.102;20.614;2023-07-20T00:23:55;18.10;99.90
20442;DHT22;10380;52.102;20.614;2023-07-20T00:26:22;18.10;99.90
20442;DHT22;10380;52.102;20.614;2023-07-20T00:28:50;18.10;99.90
20442;DHT22;10380;52.102;20.614;2023-07-20T00:31:18;18.10;99.90
20442;DHT22;10380;52.102;20.614;2023-07-20T00:33:45;18.10;99.90
20442;DHT22;10380;52.102;20.614;2023-07-20T00:36:12;18.10;99.90
20442;DHT22;10380;52.102;20.614;2023-07-20T00:38:39;18.10;99.90
20442;DHT22;10380;52.102;20.614;2023-07-20T00:41:07;18.10;99.90
20442;DHT22;10380;52.102;20.614;2023-07-20T00:43:34;18.10;99.90
20442;DHT22;10380;52.102;20.614;2023-07-20T00:46:01;18.00;99.90
20442;DHT22;10380;52.102;20.614;2023-07-20T00:48:30;18.10;99.90
20442;DHT22;10380;52.102;20.614;2023-07-20T00:51:01;18.10;99.90
20442;DHT22;10380;52.102;20.614;2023-07-20T00:53:28;18.00;99.90
20442;DHT22;10380;52.102;20.614;2023-07-20T00:55:56;18.00;99.90
20442;DHT22;10380;52.102;20.614;2023-07-20T00:58:24;18.00;99.90
20442;DHT22;10380;52.102;20.614;2023-07-20T01:00:51;17.90;99.90
20442;DHT22;10380;52.102;20.614;2023-07-20T01:03:18;17.90;99.90
20442;DHT22;10380;52.102;20.614;2023-07-20T01:11:37;17.80;99.90
20442;DHT22;10380;52.102;20.614;2023-07-20T01:14:05;17.80;99.90
20442;DHT22;10380;52.102;20.614;2023-07-20T01:16:33;17.80;99.90
20442;DHT22;10380;52.102;20.614;2023-07-20T01:19:01;17.70;99.90
20442;DHT22;10380;52.102;20.614;2023-07-20T01:21:51;17.60;99.90
20442;DHT22;10380;52.102;20.614;2023-07-20T01:24:38;17.50;99.90
20442;DHT22;10380;52.102;20.614;2023-07-20T01:30:08;17.30;99.90
20442;DHT22;10380;52.102;20.614;2023-07-20T01:32:42;17.30;99.90
20442;DHT22;10380;52.102;20.614;2023-07-20T01:35:13;17.20;99.90
20442;DHT22;10380;52.102;20.614;2023-07-20T01:37:43;17.20;99.90
20442;DHT22;10380;52.102;20.614;2023-07-20T01:40:12;17.20;99.90
20442;DHT22;10380;52.102;20.614;2023-07-20T01:42:44;17.10;99.90
20442;DHT22;10380;52.102;20.614;2023-07-20T01:45:13;17.00;99.90
20442;DHT22;10380;52.102;20.614;2023-07-20T01:47:40;16.80;99.90
20442;DHT22;10380;52.102;20.614;2023-07-20T01:50:07;16.80;99.90
20442;DHT22;10380;52.102;20.614;2023-07-20T01:52:36;16.60;99.90
20442;DHT22;10380;52.102;20.614;2023-07-20T01:55:03;16.40;99.90
20442;DHT22;10380;52.102;20.614;2023-07-20T01:57:31;16.40;99.90
20442;DHT22;10380;52.102;20.614;2023-07-20T01:59:58;16.40;99.90
20442;DHT22;10380;52.102;20.614;2023-07-20T02:02:27;16.40;99.90
20442;DHT22;10380;52.102;20.614;2023-07-20T02:04:57;16.50;99.90
20442;DHT22;10380;52.102;20.614;2023-07-20T02:07:24;16.60;99.90
20442;DHT22;10380;52.102;20.614;2023-07-20T02:09:51;16.50;99.90
20442;DHT22;10380;52.102;20.614;2023-07-20T02:12:18;16.50;99.90
20442;DHT22;10380;52.102;20.614;2023-07-20T02:14:45;16.50;99.90
20442;DHT22;10380;52.102;20.614;2023-07-20T02:17:12;16.50;99.90
20442;DHT22;10380;52.102;20.614;2023-07-20T02:19:40;16.50;99.90
20442;DHT22;10380;52.102;20.614;2023-07-20T02:22:07;16.40;99.90
20442;DHT22;10380;52.102;20.614;2023-07-20T02:24:34;16.40;99.90
20442;DHT22;10380;52.102;20.614;2023-07-20T02:27:02;16.40;99.90
20442;DHT22;10380;52.102;20.614;2023-07-20T02:29:29;16.40;99.90
20442;DHT22;10380;52.102;20.614;2023-07-20T02:31:56;16.40;99.90
20442;DHT22;10380;52.102;20.614;2023-07-20T02:34:23;16.50;99.90
20442;DHT22;10380;52.102;20.614;2023-07-20T02:36:50;16.50;99.90
20442;DHT22;10380;52.102;20.614;2023-07-20T02:39:16;16.60;99.90
20442;DHT22;10380;52.102;20.614;2023-07-20T02:41:43;16.60;99.90
20442;DHT22;10380;52.102;20.614;2023-07-20T02:44:10;16.60;99.90
20442;DHT22;10380;52.102;20.614;2023-07-20T02:46:37;16.70;99.90
20442;DHT22;10380;52.102;20.614;2023-07-20T02:49:05;16.70;99.90
20442;DHT22;10380;52.102;20.614;2023-07-20T02:51:32;16.70;99.90
20442;DHT22;10380;52.102;20.614;2023-07-20T02:53:59;16.70;99.90
20442;DHT22;10380;52.102;20.614;2023-07-20T02:56:26;16.70;99.90
20442;DHT22;10380;52.102;20.614;2023-07-20T02:58:53;16.60;99.90
20442;DHT22;10380;52.102;20.614;2023-07-20T03:01:20;16.60;99.90
20442;DHT22;10380;52.102;20.614;2023-07-20T03:03:47;16.70;99.90
20442;DHT22;10380;52.102;20.614;2023-07-20T03:06:15;16.70;99.90
20442;DHT22;10380;52.102;20.614;2023-07-20T03:08:43;16.70;99.90
20442;DHT22;10380;52.102;20.614;2023-07-20T03:11:16;16.70;99.90
20442;DHT22;10380;52.102;20.614;2023-07-20T03:13:44;16.70;99.90
20442;DHT22;10380;52.102;20.614;2023-07-20T03:16:12;16.80;99.90
20442;DHT22;10380;52.102;20.614;2023-07-20T03:18:42;16.90;99.90
20442;DHT22;10380;52.102;20.614;2023-07-20T03:21:10;16.80;99.90
20442;DHT22;10380;52.102;20.614;2023-07-20T03:23:41;16.80;99.90
20442;DHT22;10380;52.102;20.614;2023-07-20T03:26:08;16.80;99.90
20442;DHT22;10380;52.102;20.614;2023-07-20T03:28:36;16.80;99.90
20442;DHT22;10380;52.102;20.614;2023-07-20T03:31:04;16.80;99.90
20442;DHT22;10380;52.102;20.614;2023-07-20T03:33:32;16.90;99.90
20442;DHT22;10380;52.102;20.614;2023-07-20T03:35:59;16.90;99.90
20442;DHT22;10380;52.102;20.614;2023-07-20T03:38:27;16.80;99.90
20442;DHT22;10380;52.102;20.614;2023-07-20T03:40:59;16.90;99.90
20442;DHT22;10380;52.102;20.614;2023-07-20T03:43:27;16.90;99.90
20442;DHT22;10380;52.102;20.614;2023-07-20T03:45:55;16.90;99.90
20442;DHT22;10380;52.102;20.614;2023-07-20T03:48:24;16.90;99.90
20442;DHT22;10380;52.102;20.614;2023-07-20T03:50:53;16.80;99.90
20442;DHT22;10380;52.102;20.614;2023-07-20T03:53:20;16.70;99.90
20442;DHT22;10380;52.102;20.614;2023-07-20T03:55:49;16.70;99.90
20442;DHT22;10380;52.102;20.614;2023-07-20T03:58:18;16.60;99.90
20442;DHT22;10380;52.102;20.614;2023-07-20T04:00:50;16.50;99.90
20442;DHT22;10380;52.102;20.614;2023-07-20T04:03:18;16.40;99.90
20442;DHT22;10380;52.102;20.614;2023-07-20T04:05:45;16.30;99.90
20442;DHT22;10380;52.102;20.614;2023-07-20T04:08:13;16.30;99.90
20442;DHT22;10380;52.102;20.614;2023-07-20T04:10:43;16.30;99.90
20442;DHT22;10380;52.102;20.614;2023-07-20T04:13:11;16.20;99.90
20442;DHT22;10380;52.102;20.614;2023-07-20T04:15:38;16.20;99.90
20442;DHT22;10380;52.102;20.614;2023-07-20T04:18:05;16.10;99.90
20442;DHT22;10380;52.102;20.614;2023-07-20T04:20:32;16.10;99.90
20442;DHT22;10380;52.102;20.614;2023-07-20T04:22:59;16.00;99.90
20442;DHT22;10380;52.102;20.614;2023-07-20T04:25:26;16.00;99.90
20442;DHT22;10380;52.102;20.614;2023-07-20T04:27:53;15.90;99.90
20442;DHT22;10380;52.102;20.614;2023-07-20T04:30:22;15.90;99.90
20442;DHT22;10380;52.102;20.614;2023-07-20T04:32:51;15.90;99.90
20442;DHT22;10380;52.102;20.614;2023-07-20T04:35:52;15.90;99.90
20442;DHT22;10380;52.102;20.614;2023-07-20T04:38:20;16.00;99.90
20442;DHT22;10380;52.102;20.614;2023-07-20T04:40:48;16.10;99.90
20442;DHT22;10380;52.102;20.614;2023-07-20T04:43:17;16.10;99.90
20442;DHT22;10380;52.102;20.614;2023-07-20T04:45:44;16.20;99.90
20442;DHT22;10380;52.102;20.614;2023-07-20T04:48:13;16.30;99.90
20442;DHT22;10380;52.102;20.614;2023-07-20T04:50:42;16.30;99.90
20442;DHT22;10380;52.102;20.614;2023-07-20T04:53:09;16.40;99.90
20442;DHT22;10380;52.102;20.614;2023-07-20T04:55:39;16.40;99.90
20442;DHT22;10380;52.102;20.614;2023-07-20T04:58:07;16.40;99.90
20442;DHT22;10380;52.102;20.614;2023-07-20T05:00:34;16.40;99.90
20442;DHT22;10380;52.102;20.614;2023-07-20T05:03:01;16.40;99.90
20442;DHT22;10380;52.102;20.614;2023-07-20T05:05:28;16.40;99.90
20442;DHT22;10380;52.102;20.614;2023-07-20T05:07:55;16.50;99.90
20442;DHT22;10380;52.102;20.614;2023-07-20T05:10:23;16.40;99.90
20442;DHT22;10380;52.102;20.614;2023-07-20T05:12:50;16.50;99.90
20442;DHT22;10380;52.102;20.614;2023-07-20T05:15:17;16.40;99.90
20442;DHT22;10380;52.102;20.614;2023-07-20T05:17:44;16.40;99.90
20442;DHT22;10380;52.102;20.614;2023-07-20T05:20:11;16.40;99.90
20442;DHT22;10380;52.102;20.614;2023-07-20T05:22:39;16.40;99.90
20442;DHT22;10380;52.102;20.614;2023-07-20T05:25:07;16.40;99.90
20442;DHT22;10380;52.102;20.614;2023-07-20T05:27:38;16.40;99.90
20442;DHT22;10380;52.102;20.614;2023-07-20T05:30:06;16.30;99.90
20442;DHT22;10380;52.102;20.614;2023-07-20T05:32:36;16.30;99.90
20442;DHT22;10380;52.102;20.614;2023-07-20T05:35:04;16.30;99.90
20442;DHT22;10380;52.102;20.614;2023-07-20T05:37:31;16.30;99.90
20442;DHT22;10380;52.102;20.614;2023-07-20T05:39:59;16.30;99.90
20442;DHT22;10380;52.102;20.614;2023-07-20T05:42:26;16.30;99.90
20442;DHT22;10380;52.102;20.614;2023-07-20T05:44:53;16.30;99.90
20442;DHT22;10380;52.102;20.614;2023-07-20T05:47:22;16.30;99.90
20442;DHT22;10380;52.102;20.614;2023-07-20T05:49:49;16.30;99.90
20442;DHT22;10380;52.102;20.614;2023-07-20T05:52:16;16.30;99.90
20442;DHT22;10380;52.102;20.614;2023-07-20T05:54:42;16.30;99.90
20442;DHT22;10380;52.102;20.614;2023-07-20T05:57:09;16.40;99.90
20442;DHT22;10380;52.102;20.614;2023-07-20T05:59:36;16.40;99.90
20442;DHT22;10380;52.102;20.614;2023-07-20T06:02:05;16.40;99.90
20442;DHT22;10380;52.102;20.614;2023-07-20T06:04:32;16.50;99.90
20442;DHT22;10380;52.102;20.614;2023-07-20T06:06:59;16.50;99.90
20442;DHT22;10380;52.102;20.614;2023-07-20T06:09:26;16.50;99.90
20442;DHT22;10380;52.102;20.614;2023-07-20T06:11:54;16.60;99.90
20442;DHT22;10380;52.102;20.614;2023-07-20T06:14:21;16.60;99.90
20442;DHT22;10380;52.102;20.614;2023-07-20T06:16:48;16.60;99.90
20442;DHT22;10380;52.102;20.614;2023-07-20T06:19:15;16.60;99.90
20442;DHT22;10380;52.102;20.614;2023-07-20T06:21:43;16.70;99.90
20442;DHT22;10380;52.102;20.614;2023-07-20T06:24:10;16.80;99.90
20442;DHT22;10380;52.102;20.614;2023-07-20T06:26:37;16.90;99.90
20442;DHT22;10380;52.102;20.614;2023-07-20T06:29:06;16.90;99.90
20442;DHT22;10380;52.102;20.614;2023-07-20T06:31:34;17.00;99.90
20442;DHT22;10380;52.102;20.614;2023-07-20T06:34:01;17.00;99.90
20442;DHT22;10380;52.102;20.614;2023-07-20T06:36:29;17.10;99.90
20442;DHT22;10380;52.102;20.614;2023-07-20T06:38:56;17.10;99.90
20442;DHT22;10380;52.102;20.614;2023-07-20T06:41:26;17.10;99.90
20442;DHT22;10380;52.102;20.614;2023-07-20T06:43:56;17.10;99.90
20442;DHT22;10380;52.102;20.614;2023-07-20T06:46:26;17.10;99.90
20442;DHT22;10380;52.102;20.614;2023-07-20T06:48:54;17.20;99.90
20442;DHT22;10380;52.102;20.614;2023-07-20T06:51:24;17.20;99.90
20442;DHT22;10380;52.102;20.614;2023-07-20T06:53:52;17.30;99.90
20442;DHT22;10380;52.102;20.614;2023-07-20T06:56:19;17.40;99.90
20442;DHT22;10380;52.102;20.614;2023-07-20T06:58:50;17.40;99.90
20442;DHT22;10380;52.102;20.614;2023-07-20T07:01:18;17.30;99.90
20442;DHT22;10380;52.102;20.614;2023-07-20T07:03:46;17.20;99.90
20442;DHT22;10380;52.102;20.614;2023-07-20T07:06:13;17.20;99.90
20442;DHT22;10380;52.102;20.614;2023-07-20T07:08:40;17.10;99.90
20442;DHT22;10380;52.102;20.614;2023-07-20T07:11:07;17.00;99.90
20442;DHT22;10380;52.102;20.614;2023-07-20T07:13:34;16.90;99.90
20442;DHT22;10380;52.102;20.614;2023-07-20T07:16:01;16.90;99.90
20442;DHT22;10380;52.102;20.614;2023-07-20T07:18:28;16.90;99.90
20442;DHT22;10380;52.102;20.614;2023-07-20T07:20:57;16.90;99.90
20442;DHT22;10380;52.102;20.614;2023-07-20T07:23:28;16.80;99.90
20442;DHT22;10380;52.102;20.614;2023-07-20T07:25:55;16.80;99.90
20442;DHT22;10380;52.102;20.614;2023-07-20T07:28:22;16.90;99.90
20442;DHT22;10380;52.102;20.614;2023-07-20T07:30:49;16.90;99.90
20442;DHT22;10380;52.102;20.614;2023-07-20T07:33:16;16.90;99.90
20442;DHT22;10380;52.102;20.614;2023-07-20T07:35:43;16.90;99.90
20442;DHT22;10380;52.102;20.614;2023-07-20T07:38:10;17.00;99.90
20442;DHT22;10380;52.102;20.614;2023-07-20T07:40:58;17.00;99.90
20442;DHT22;10380;52.102;20.614;2023-07-20T07:43:25;17.00;99.90
20442;DHT22;10380;52.102;20.614;2023-07-20T07:45:54;17.00;99.90
20442;DHT22;10380;52.102;20.614;2023-07-20T07:48:22;17.10;99.90
20442;DHT22;10380;52.102;20.614;2023-07-20T07:50:49;17.10;99.90
20442;DHT22;10380;52.102;20.614;2023-07-20T07:53:17;17.20;99.90
20442;DHT22;10380;52.102;20.614;2023-07-20T07:55:45;17.20;99.90
20442;DHT22;10380;52.102;20.614;2023-07-20T07:58:12;17.20;99.90
20442;DHT22;10380;52.102;20.614;2023-07-20T08:00:39;17.20;99.90
20442;DHT22;10380;52.102;20.614;2023-07-20T08:03:07;17.20;99.90
20442;DHT22;10380;52.102;20.614;2023-07-20T08:05:34;17.20;99.90
20442;DHT22;10380;52.102;20.614;2023-07-20T08:08:05;17.20;99.90
20442;DHT22;10380;52.102;20.614;2023-07-20T08:10:32;17.30;99.90
20442;DHT22;10380;52.102;20.614;2023-07-20T08:12:58;17.30;99.90
20442;DHT22;10380;52.102;20.614;2023-07-20T08:15:25;17.30;99.90
20442;DHT22;10380;52.102;20.614;2023-07-20T08:17:52;17.20;99.90
20442;DHT22;10380;52.102;20.614;2023-07-20T08:20:20;17.20;99.90
20442;DHT22;10380;52.102;20.614;2023-07-20T08:22:54;17.20;99.90
20442;DHT22;10380;52.102;20.614;2023-07-20T08:25:21;17.10;99.90
20442;DHT22;10380;52.102;20.614;2023-07-20T08:27:48;17.10;99.90
20442;DHT22;10380;52.102;20.614;2023-07-20T08:30:16;17.10;99.90
20442;DHT22;10380;52.102;20.614;2023-07-20T08:32:43;17.10;99.90
20442;DHT22;10380;52.102;20.614;2023-07-20T08:35:10;17.10;99.90
20442;DHT22;10380;52.102;20.614;2023-07-20T08:37:37;17.00;99.90
20442;DHT22;10380;52.102;20.614;2023-07-20T08:40:05;17.00;99.90
20442;DHT22;10380;52.102;20.614;2023-07-20T08:42:37;17.00;99.90
20442;DHT22;10380;52.102;20.614;2023-07-20T08:45:06;17.00;99.90
20442;DHT22;10380;52.102;20.614;2023-07-20T08:47:35;17.00;99.90
20442;DHT22;10380;52.102;20.614;2023-07-20T08:50:05;16.90;99.90
20442;DHT22;10380;52.102;20.614;2023-07-20T08:52:34;17.00;99.90
20442;DHT22;10380;52.102;20.614;2023-07-20T08:55:01;16.90;99.90
20442;DHT22;10380;52.102;20.614;2023-07-20T08:57:33;16.90;99.90
20442;DHT22;10380;52.102;20.614;2023-07-20T09:00:03;17.00;99.90
20442;DHT22;10380;52.102;20.614;2023-07-20T09:02:35;17.00;99.90
20442;DHT22;10380;52.102;20.614;2023-07-20T09:05:09;17.10;99.90
20442;DHT22;10380;52.102;20.614;2023-07-20T09:07:37;17.20;99.90
20442;DHT22;10380;52.102;20.614;2023-07-20T09:10:04;17.40;99.90
20442;DHT22;10380;52.102;20.614;2023-07-20T09:12:37;17.60;99.90
20442;DHT22;10380;52.102;20.614;2023-07-20T09:15:05;17.90;99.90
20442;DHT22;10380;52.102;20.614;2023-07-20T09:17:33;18.30;99.90
20442;DHT22;10380;52.102;20.614;2023-07-20T09:20:07;18.60;99.90
20442;DHT22;10380;52.102;20.614;2023-07-20T09:22:38;19.00;99.90
20442;DHT22;10380;52.102;20.614;2023-07-20T09:25:12;19.40;99.90
20442;DHT22;10380;52.102;20.614;2023-07-20T09:27:45;19.70;99.90
20442;DHT22;10380;52.102;20.614;2023-07-20T09:30:14;19.90;99.90
20442;DHT22;10380;52.102;20.614;2023-07-20T09:32:48;20.10;99.90
20442;DHT22;10380;52.102;20.614;2023-07-20T09:35:20;20.10;99.90
20442;DHT22;10380;52.102;20.614;2023-07-20T09:37:57;20.20;99.90
20442;DHT22;10380;52.102;20.614;2023-07-20T09:40:28;20.20;99.90
20442;DHT22;10380;52.102;20.614;2023-07-20T09:42:59;20.20;99.90
20442;DHT22;10380;52.102;20.614;2023-07-20T09:45:35;20.20;99.90
20442;DHT22;10380;52.102;20.614;2023-07-20T09:48:24;20.40;99.90
20442;DHT22;10380;52.102;20.614;2023-07-20T09:50:56;20.40;99.90
20442;DHT22;10380;52.102;20.614;2023-07-20T09:53:25;20.40;99.90
20442;DHT22;10380;52.102;20.614;2023-07-20T09:55:53;20.30;99.90
20442;DHT22;10380;52.102;20.614;2023-07-20T09:58:22;20.20;99.90
20442;DHT22;10380;52.102;20.614;2023-07-20T10:00:51;20.10;99.90
20442;DHT22;10380;52.102;20.614;2023-07-20T10:03:22;20.10;99.90
20442;DHT22;10380;52.102;20.614;2023-07-20T10:06:00;20.20;99.90
20442;DHT22;10380;52.102;20.614;2023-07-20T10:08:30;20.30;99.90
20442;DHT22;10380;52.102;20.614;2023-07-20T10:11:02;20.50;99.90
20442;DHT22;10380;52.102;20.614;2023-07-20T10:13:30;20.60;99.90
20442;DHT22;10380;52.102;20.614;2023-07-20T10:16:02;20.90;99.90
20442;DHT22;10380;52.102;20.614;2023-07-20T10:19:11;21.10;99.90
20442;DHT22;10380;52.102;20.614;2023-07-20T10:21:47;21.30;99.90
20442;DHT22;10380;52.102;20.614;2023-07-20T10:24:23;21.40;99.90
20442;DHT22;10380;52.102;20.614;2023-07-20T10:26:51;21.70;99.90
20442;DHT22;10380;52.102;20.614;2023-07-20T10:29:18;21.80;99.90
20442;DHT22;10380;52.102;20.614;2023-07-20T10:31:46;22.00;99.90
20442;DHT22;10380;52.102;20.614;2023-07-20T10:34:13;22.10;99.90
20442;DHT22;10380;52.102;20.614;2023-07-20T10:36:44;22.10;99.90
20442;DHT22;10380;52.102;20.614;2023-07-20T10:39:26;22.00;99.90
20442;DHT22;10380;52.102;20.614;2023-07-20T10:42:07;21.70;99.90
20442;DHT22;10380;52.102;20.614;2023-07-20T10:44:38;21.50;99.90
20442;DHT22;10380;52.102;20.614;2023-07-20T10:47:13;21.50;99.90
20442;DHT22;10380;52.102;20.614;2023-07-20T10:50:06;21.60;99.90
20442;DHT22;10380;52.102;20.614;2023-07-20T10:52:37;21.70;99.90
20442;DHT22;10380;52.102;20.614;2023-07-20T10:55:17;21.70;99.90
20442;DHT22;10380;52.102;20.614;2023-07-20T10:58:22;21.80;99.90
20442;DHT22;10380;52.102;20.614;2023-07-20T11:01:04;21.90;99.90
20442;DHT22;10380;52.102;20.614;2023-07-20T11:03:35;22.20;99.90
20442;DHT22;10380;52.102;20.614;2023-07-20T11:11:31;22.10;99.90
20442;DHT22;10380;52.102;20.614;2023-07-20T11:14:04;21.90;99.90
20442;DHT22;10380;52.102;20.614;2023-07-20T11:16:47;21.70;99.90
20442;DHT22;10380;52.102;20.614;2023-07-20T11:19:24;21.60;99.90
20442;DHT22;10380;52.102;20.614;2023-07-20T11:21:56;21.50;99.90
20442;DHT22;10380;52.102;20.614;2023-07-20T11:24:30;21.50;99.90
20442;DHT22;10380;52.102;20.614;2023-07-20T11:26:59;21.50;99.90
20442;DHT22;10380;52.102;20.614;2023-07-20T11:29:26;21.60;99.90
20442;DHT22;10380;52.102;20.614;2023-07-20T11:31:59;21.60;99.90
20442;DHT22;10380;52.102;20.614;2023-07-20T11:34:27;21.50;99.90
20442;DHT22;10380;52.102;20.614;2023-07-20T11:36:54;21.50;99.90
20442;DHT22;10380;52.102;20.614;2023-07-20T11:39:25;21.50;99.90
20442;DHT22;10380;52.102;20.614;2023-07-20T11:41:55;21.40;99.90
20442;DHT22;10380;52.102;20.614;2023-07-20T11:44:23;21.30;99.90
20442;DHT22;10380;52.102;20.614;2023-07-20T11:47:12;21.20;99.90
20442;DHT22;10380;52.102;20.614;2023-07-20T11:49:41;21.10;99.90
20442;DHT22;10380;52.102;20.614;2023-07-20T11:52:14;21.10;99.90
20442;DHT22;10380;52.102;20.614;2023-07-20T11:54:43;21.40;99.90
20442;DHT22;10380;52.102;20.614;2023-07-20T11:57:21;21.70;99.90
20442;DHT22;10380;52.102;20.614;2023-07-20T11:59:57;22.20;99.90
20442;DHT22;10380;52.102;20.614;2023-07-20T12:02:29;22.70;99.90
20442;DHT22;10380;52.102;20.614;2023-07-20T12:04:56;23.40;99.90
20442;DHT22;10380;52.102;20.614;2023-07-20T12:07:27;23.70;99.90
20442;DHT22;10380;52.102;20.614;2023-07-20T12:10:11;24.20;99.90
20442;DHT22;10380;52.102;20.614;2023-07-20T12:12:40;25.00;99.90
20442;DHT22;10380;52.102;20.614;2023-07-20T12:15:20;25.80;99.90
20442;DHT22;10380;52.102;20.614;2023-07-20T12:17:55;26.80;99.90
20442;DHT22;10380;52.102;20.614;2023-07-20T12:20:32;27.50;99.90
20442;DHT22;10380;52.102;20.614;2023-07-20T12:23:11;27.50;99.90
20442;DHT22;10380;52.102;20.614;2023-07-20T12:25:46;27.10;99.90
20442;DHT22;10380;52.102;20.614;2023-07-20T12:28:15;26.40;99.90
20442;DHT22;10380;52.102;20.614;2023-07-20T12:30:44;25.80;99.90
20442;DHT22;10380;52.102;20.614;2023-07-20T12:33:12;25.40;99.90
20442;DHT22;10380;52.102;20.614;2023-07-20T12:35:43;25.00;99.90
20442;DHT22;10380;52.102;20.614;2023-07-20T12:38:10;24.60;99.90
20442;DHT22;10380;52.102;20.614;2023-07-20T12:40:37;24.30;99.90
20442;DHT22;10380;52.102;20.614;2023-07-20T12:43:04;24.00;99.90
20442;DHT22;10380;52.102;20.614;2023-07-20T12:45:31;23.60;99.90
20442;DHT22;10380;52.102;20.614;2023-07-20T12:47:59;23.30;99.90
20442;DHT22;10380;52.102;20.614;2023-07-20T12:50:26;23.10;99.90
20442;DHT22;10380;52.102;20.614;2023-07-20T12:52:53;22.90;99.90
20442;DHT22;10380;52.102;20.614;2023-07-20T12:55:20;22.90;99.90
20442;DHT22;10380;52.102;20.614;2023-07-20T12:57:47;23.20;99.90
20442;DHT22;10380;52.102;20.614;2023-07-20T13:00:16;23.90;99.90
20442;DHT22;10380;52.102;20.614;2023-07-20T13:02:44;24.90;99.90
20442;DHT22;10380;52.102;20.614;2023-07-20T13:05:11;25.60;99.90
20442;DHT22;10380;52.102;20.614;2023-07-20T13:07:39;26.00;99.90
20442;DHT22;10380;52.102;20.614;2023-07-20T13:10:10;26.20;99.90
20442;DHT22;10380;52.102;20.614;2023-07-20T13:12:38;26.60;99.90
20442;DHT22;10380;52.102;20.614;2023-07-20T13:15:07;27.30;99.90
20442;DHT22;10380;52.102;20.614;2023-07-20T13:17:35;28.00;99.90
20442;DHT22;10380;52.102;20.614;2023-07-20T13:20:04;28.30;99.90
20442;DHT22;10380;52.102;20.614;2023-07-20T13:22:33;28.20;99.90
20442;DHT22;10380;52.102;20.614;2023-07-20T13:25:00;27.80;99.90
20442;DHT22;10380;52.102;20.614;2023-07-20T13:27:28;27.20;99.90
20442;DHT22;10380;52.102;20.614;2023-07-20T13:29:55;26.50;99.90
20442;DHT22;10380;52.102;20.614;2023-07-20T13:32:24;25.90;99.90
20442;DHT22;10380;52.102;20.614;2023-07-20T13:34:51;25.40;99.90
20442;DHT22;10380;52.102;20.614;2023-07-20T13:37:18;25.00;99.90
20442;DHT22;10380;52.102;20.614;2023-07-20T13:39:47;24.60;99.90
20442;DHT22;10380;52.102;20.614;2023-07-20T13:42:15;24.30;99.90
20442;DHT22;10380;52.102;20.614;2023-07-20T13:44:45;23.90;99.90
20442;DHT22;10380;52.102;20.614;2023-07-20T13:47:13;23.60;99.90
20442;DHT22;10380;52.102;20.614;2023-07-20T13:49:43;23.40;99.90
20442;DHT22;10380;52.102;20.614;2023-07-20T13:52:14;23.20;99.90
20442;DHT22;10380;52.102;20.614;2023-07-20T13:54:44;23.00;99.90
20442;DHT22;10380;52.102;20.614;2023-07-20T13:57:16;22.80;99.90
20442;DHT22;10380;52.102;20.614;2023-07-20T13:59:44;22.60;99.90
20442;DHT22;10380;52.102;20.614;2023-07-20T14:02:14;22.40;99.90
20442;DHT22;10380;52.102;20.614;2023-07-20T14:04:44;22.20;99.90
20442;DHT22;10380;52.102;20.614;2023-07-20T14:07:12;22.00;99.90
20442;DHT22;10380;52.102;20.614;2023-07-20T14:09:43;21.80;99.90
20442;DHT22;10380;52.102;20.614;2023-07-20T14:12:13;21.70;99.90
20442;DHT22;10380;52.102;20.614;2023-07-20T14:14:43;21.50;99.90
20442;DHT22;10380;52.102;20.614;2023-07-20T14:17:13;21.40;99.90
20442;DHT22;10380;52.102;20.614;2023-07-20T14:19:40;21.30;99.90
20442;DHT22;10380;52.102;20.614;2023-07-20T14:22:09;21.20;99.90
20442;DHT22;10380;52.102;20.614;2023-07-20T14:24:38;21.10;99.90
20442;DHT22;10380;52.102;20.614;2023-07-20T14:27:06;21.00;99.90
20442;DHT22;10380;52.102;20.614;2023-07-20T14:29:33;21.00;99.90
20442;DHT22;10380;52.102;20.614;2023-07-20T14:32:03;20.90;99.90
20442;DHT22;10380;52.102;20.614;2023-07-20T14:34:33;20.90;99.90
20442;DHT22;10380;52.102;20.614;2023-07-20T14:37:05;20.90;99.90
20442;DHT22;10380;52.102;20.614;2023-07-20T14:39:33;20.90;99.90
20442;DHT22;10380;52.102;20.614;2023-07-20T14:42:00;21.10;99.90
20442;DHT22;10380;52.102;20.614;2023-07-20T14:44:27;21.70;99.90
20442;DHT22;10380;52.102;20.614;2023-07-20T14:46:53;22.40;99.90
20442;DHT22;10380;52.102;20.614;2023-07-20T14:49:39;23.10;99.90
20442;DHT22;10380;52.102;20.614;2023-07-20T14:52:07;23.90;99.90
20442;DHT22;10380;52.102;20.614;2023-07-20T14:54:36;24.40;99.90
20442;DHT22;10380;52.102;20.614;2023-07-20T14:57:03;24.70;99.90
20442;DHT22;10380;52.102;20.614;2023-07-20T14:59:31;24.90;99.90
20442;DHT22;10380;52.102;20.614;2023-07-20T15:01:58;25.00;99.90
20442;DHT22;10380;52.102;20.614;2023-07-20T15:04:25;25.10;99.90
20442;DHT22;10380;52.102;20.614;2023-07-20T15:06:54;25.20;99.90
20442;DHT22;10380;52.102;20.614;2023-07-20T15:09:21;25.40;99.90
20442;DHT22;10380;52.102;20.614;2023-07-20T15:11:48;25.60;99.90
20442;DHT22;10380;52.102;20.614;2023-07-20T15:14:15;25.60;99.90
20442;DHT22;10380;52.102;20.614;2023-07-20T15:16:43;25.40;99.90
20442;DHT22;10380;52.102;20.614;2023-07-20T15:19:13;25.40;99.90
20442;DHT22;10380;52.102;20.614;2023-07-20T15:21:40;25.50;99.90
20442;DHT22;10380;52.102;20.614;2023-07-20T15:24:07;25.50;99.90
20442;DHT22;10380;52.102;20.614;2023-07-20T15:26:34;25.30;99.90
20442;DHT22;10380;52.102;20.614;2023-07-20T15:29:02;25.20;99.90
20442;DHT22;10380;52.102;20.614;2023-07-20T15:31:29;25.20;99.90
20442;DHT22;10380;52.102;20.614;2023-07-20T15:33:59;25.10;99.90
20442;DHT22;10380;52.102;20.614;2023-07-20T15:36:25;25.00;99.90
20442;DHT22;10380;52.102;20.614;2023-07-20T15:38:53;24.80;99.90
20442;DHT22;10380;52.102;20.614;2023-07-20T15:41:20;24.60;99.90
20442;DHT22;10380;52.102;20.614;2023-07-20T15:43:48;24.60;99.90